Villa Montes, Bolivia
Current Conditions -  °F | °C
As of 11:00 PM on Sunday 21 Dec 2014 (Local Time) from SLTJ Reporting Station
Broken Clouds Broken Clouds  
Wind Chill: 64°   Ceiling: 3000
Heat Index: 64°   Visibility: 6mi
Dew Point: 57°   Wind: 14mph
Humidity: 77%   Direction: 150°SSE
Pressure: 30.03"   Gusts: NA
Location:  21.27°S, 63.5°W
Report Text: SLTJ 220300Z 15012KT 9999 BKN030 BKN070 18/14 Q1017
Loading
Personal Weather Stations






























Interactive Weather Map New forecast layout! Learn more

10-Day Weather Forecast

Advertisements
Track Severe Weather on mobile